Time;durP1;ratioP1;P1;durP2;ratioP2;P2;SDS_P1;SDS_P2;PMS_P1;PMS_P2;Temp;Humidity;BMP_temperature;BMP_pressure;BME280_temperature;BME280_humidity;BME280_pressure;Samples;Min_cycle;Max_cycle;Signal;HPM_P1;HPM_P2
2022/01/19 00:30:35;;;;;;;5.68;1.63;;;5.90;99.90;;;;;;6232966;22;20027;-80
2022/01/19 00:33:02;;;;;;;2.28;1.58;;;5.90;99.90;;;;;;6222605;23;20008;-81
2022/01/19 00:35:28;;;;;;;4.05;1.98;;;5.90;99.90;;;;;;6195575;23;20004;-81
2022/01/19 00:37:55;;;;;;;5.63;1.70;;;5.90;99.90;;;;;;6219703;23;20448;-81
2022/01/19 00:40:22;;;;;;;2.30;1.30;;;5.90;99.90;;;;;;6194267;23;20062;-81
2022/01/19 00:42:49;;;;;;;9.02;2.15;;;5.80;99.90;;;;;;6214512;23;20048;-81
2022/01/19 00:45:16;;;;;;;3.30;1.33;;;5.80;99.90;;;;;;6164705;23;20005;-81
2022/01/19 00:47:49;;;;;;;4.10;1.35;;;5.80;99.90;;;;;;6158104;23;20009;-81
2022/01/19 00:50:23;;;;;;;3.60;1.45;;;5.80;99.90;;;;;;6189579;23;20008;-81
2022/01/19 00:52:51;;;;;;;9.57;1.85;;;5.90;99.90;;;;;;6189551;23;20016;-81
2022/01/19 00:55:22;;;;;;;5.55;1.27;;;5.80;99.90;;;;;;6189266;23;20381;-81
2022/01/19 00:57:49;;;;;;;7.57;1.05;;;5.80;99.90;;;;;;6216312;23;20015;-81
2022/01/19 01:00:21;;;;;;;4.18;1.13;;;5.90;99.90;;;;;;6189206;23;20460;-81
2022/01/19 01:02:48;;;;;;;2.08;1.10;;;5.80;99.90;;;;;;6189304;23;20017;-81
2022/01/19 01:05:22;;;;;;;4.60;1.52;;;5.70;99.90;;;;;;6189237;23;20058;-81
2022/01/19 01:07:51;;;;;;;5.75;1.45;;;5.60;99.90;;;;;;6189300;23;20094;-81
2022/01/19 01:10:20;;;;;;;2.17;1.15;;;5.60;99.90;;;;;;6189470;23;20076;-81
2022/01/19 01:12:51;;;;;;;5.85;1.10;;;5.70;99.90;;;;;;6189383;23;20016;-81
2022/01/19 01:18:30;;;;;;;2.20;1.15;;;5.60;99.90;;;;;;6101529;23;20053;-81
2022/01/19 01:21:01;;;;;;;2.38;1.10;;;5.60;99.90;;;;;;6177517;23;20080;-81
2022/01/19 01:23:32;;;;;;;3.38;0.77;;;5.60;99.90;;;;;;6166448;23;20063;-81
2022/01/19 01:26:00;;;;;;;1.75;0.77;;;5.60;99.90;;;;;;6166555;23;20004;-81
2022/01/19 01:28:27;;;;;;;3.95;0.70;;;5.60;99.90;;;;;;6166522;23;20009;-81
2022/01/19 01:30:55;;;;;;;2.75;0.93;;;5.60;99.90;;;;;;6166210;23;20012;-81
2022/01/19 01:33:24;;;;;;;4.38;1.20;;;5.60;99.90;;;;;;6166415;23;20008;-81
2022/01/19 01:35:54;;;;;;;2.53;1.00;;;5.60;99.90;;;;;;6166444;23;20062;-81
2022/01/19 01:38:23;;;;;;;8.25;0.98;;;5.60;99.90;;;;;;6191878;23;20007;-81
2022/01/19 01:40:50;;;;;;;3.88;0.98;;;5.60;99.90;;;;;;6166355;23;20092;-81
2022/01/19 01:43:17;;;;;;;2.22;0.73;;;5.60;99.90;;;;;;6166209;23;20058;-81
2022/01/19 01:45:46;;;;;;;2.65;1.15;;;5.60;99.90;;;;;;6166297;23;20004;-81
2022/01/19 01:48:17;;;;;;;6.85;1.13;;;5.50;99.90;;;;;;6166162;23;20349;-81
2022/01/19 01:54:01;;;;;;;3.50;1.08;;;5.30;99.90;;;;;;6192007;23;20478;-81
2022/01/19 01:56:31;;;;;;;2.75;0.75;;;5.30;99.90;;;;;;6166246;23;20084;-81
2022/01/19 01:59:03;;;;;;;5.43;1.30;;;5.40;99.90;;;;;;6167100;23;20011;-81
2022/01/19 02:01:32;;;;;;;3.25;1.10;;;5.40;99.90;;;;;;6190998;23;20017;-81
2022/01/19 02:04:05;;;;;;;2.97;1.65;;;5.30;99.90;;;;;;6166950;23;20009;-81
2022/01/19 02:06:41;;;;;;;1.77;1.17;;;5.30;99.90;;;;;;6166210;23;20004;-81
2022/01/19 02:09:25;;;;;;;3.80;1.20;;;5.10;99.90;;;;;;6193621;23;20009;-81
2022/01/19 02:23:07;;;;;;;6.45;1.35;;;5.10;99.90;;;;;;6190534;23;20345;-81
2022/01/19 02:25:39;;;;;;;3.97;1.50;;;5.00;99.90;;;;;;6190760;23;20005;-81
2022/01/19 02:41:43;;;;;;;5.78;1.40;;;4.90;99.90;;;;;;6190444;23;20016;-81
2022/01/19 02:44:13;;;;;;;2.38;1.15;;;4.90;99.90;;;;;;6165784;23;20015;-81
2022/01/19 02:49:25;;;;;;;4.35;1.48;;;5.00;99.90;;;;;;6190405;23;20020;-81
2022/01/19 02:51:54;;;;;;;1.80;1.00;;;5.00;99.90;;;;;;6190373;23;20461;-81
2022/01/19 02:54:24;;;;;;;8.38;1.10;;;5.10;99.90;;;;;;6217420;23;20016;-81
2022/01/19 02:56:55;;;;;;;4.57;1.20;;;5.10;99.90;;;;;;6190309;23;20315;-81
2022/01/19 02:59:39;;;;;;;4.22;1.40;;;5.10;99.90;;;;;;6190311;23;20012;-81
2022/01/19 03:10:24;;;;;;;3.47;1.55;;;5.00;99.90;;;;;;6190275;23;20012;-81
2022/01/19 03:12:54;;;;;;;7.88;1.15;;;5.00;99.90;;;;;;6165467;23;20008;-81
2022/01/19 03:15:25;;;;;;;3.95;1.42;;;4.90;99.90;;;;;;6165534;23;20013;-81
2022/01/19 03:17:56;;;;;;;3.78;1.48;;;4.90;99.90;;;;;;6165244;23;20012;-81
2022/01/19 03:20:24;;;;;;;5.20;1.38;;;4.80;99.90;;;;;;6165364;23;20013;-81
2022/01/19 03:23:03;;;;;;;7.05;1.38;;;4.60;99.90;;;;;;6190406;23;20174;-81
2022/01/19 03:25:36;;;;;;;4.20;1.88;;;4.50;99.90;;;;;;6165410;23;20346;-81
2022/01/19 03:28:04;;;;;;;8.40;2.13;;;4.50;99.90;;;;;;6165202;23;20008;-81
2022/01/19 03:30:32;;;;;;;8.18;2.20;;;4.40;99.90;;;;;;6165115;23;20024;-81
2022/01/19 03:32:59;;;;;;;2.15;1.10;;;4.40;99.90;;;;;;6165363;23;20009;-81
2022/01/19 03:35:25;;;;;;;6.82;1.30;;;4.50;99.90;;;;;;6189961;23;20092;-81
2022/01/19 03:37:59;;;;;;;3.60;1.10;;;4.60;99.90;;;;;;6165201;23;20369;-81
2022/01/19 03:40:27;;;;;;;6.88;1.67;;;4.60;99.90;;;;;;6216268;23;20009;-81
2022/01/19 03:42:53;;;;;;;1.75;1.15;;;4.50;99.90;;;;;;6189917;23;20063;-81
2022/01/19 03:45:33;;;;;;;3.67;1.45;;;4.40;99.90;;;;;;6167494;23;20013;-81
2022/01/19 03:50:44;;;;;;;2.47;1.23;;;4.20;99.90;;;;;;6189834;23;20008;-81
2022/01/19 03:53:20;;;;;;;7.28;1.88;;;4.20;99.90;;;;;;6164996;23;20058;-81
2022/01/19 03:55:47;;;;;;;4.22;1.75;;;4.30;99.90;;;;;;6165031;23;20071;-81
2022/01/19 03:58:14;;;;;;;5.13;1.70;;;4.40;99.90;;;;;;6165089;23;20001;-81
2022/01/19 04:00:43;;;;;;;2.58;0.90;;;4.40;99.90;;;;;;6164879;23;20427;-81
2022/01/19 04:03:14;;;;;;;8.23;1.27;;;4.60;99.90;;;;;;6216269;23;20020;-81
2022/01/19 04:05:54;;;;;;;6.25;1.52;;;4.70;99.90;;;;;;6164992;23;20009;-81
2022/01/19 04:08:22;;;;;;;1.80;0.70;;;4.70;99.90;;;;;;6164965;23;20103;-81
2022/01/19 04:10:50;;;;;;;10.43;1.30;;;4.70;99.90;;;;;;6165077;23;20029;-81
2022/01/19 04:13:44;;;;;;;5.50;1.27;;;4.70;99.90;;;;;;6164796;23;20091;-81
2022/01/19 04:16:11;;;;;;;3.55;1.08;;;4.60;99.90;;;;;;6189662;23;20012;-81
2022/01/19 04:18:38;;;;;;;3.20;1.10;;;4.50;99.90;;;;;;6164901;23;20009;-81
2022/01/19 04:21:07;;;;;;;3.40;1.20;;;4.40;99.90;;;;;;6164859;23;20434;-81
2022/01/19 04:23:34;;;;;;;6.13;1.20;;;4.40;99.90;;;;;;6164801;23;20040;-80
2022/01/19 04:26:05;;;;;;;3.60;0.95;;;4.50;99.90;;;;;;6164882;23;20028;-80
2022/01/19 04:28:33;;;;;;;9.40;1.40;;;4.60;99.90;;;;;;6165349;23;20023;-80
2022/01/19 04:31:00;;;;;;;2.47;0.80;;;4.80;99.90;;;;;;6159394;23;20379;-80
2022/01/19 04:33:28;;;;;;;2.70;0.90;;;4.90;99.90;;;;;;6184596;23;20031;-80
2022/01/19 04:36:18;;;;;;;4.57;1.20;;;5.10;99.90;;;;;;6159668;23;20005;-81
2022/01/19 05:04:00;;;;;;;2.38;0.85;;;5.00;99.90;;;;;;6185767;23;20017;-80
2022/01/19 05:06:54;;;;;;;1.55;0.73;;;5.00;99.90;;;;;;6184710;23;20092;-80
2022/01/19 05:09:49;;;;;;;5.13;1.33;;;5.00;99.90;;;;;;6184509;23;20009;-81
2022/01/19 05:14:56;;;;;;;2.90;1.42;;;4.90;99.90;;;;;;6184328;23;20013;-81
2022/01/19 05:17:23;;;;;;;2.80;0.80;;;5.00;99.90;;;;;;6184353;23;20389;-81
2022/01/19 05:19:52;;;;;;;3.47;0.70;;;5.00;99.90;;;;;;6159639;23;20450;-82
2022/01/19 05:22:19;;;;;;;3.72;1.00;;;4.90;99.90;;;;;;6184729;23;20013;-81
2022/01/19 05:24:49;;;;;;;1.75;0.98;;;4.90;99.90;;;;;;6159473;23;20304;-80
2022/01/19 05:27:25;;;;;;;2.63;0.70;;;4.90;99.90;;;;;;6184188;23;20016;-82
2022/01/19 05:29:51;;;;;;;10.90;1.63;;;4.90;99.90;;;;;;6189004;23;20012;-82
2022/01/19 05:32:18;;;;;;;2.05;0.70;;;4.90;99.90;;;;;;6164607;23;20012;-82
2022/01/19 05:34:49;;;;;;;4.03;1.00;;;5.00;99.90;;;;;;6164577;23;20015;-81
2022/01/19 05:37:57;;;;;;;3.92;0.70;;;5.00;99.90;;;;;;6124120;23;20016;-81
2022/01/19 05:40:40;;;;;;;3.88;1.15;;;5.10;99.90;;;;;;6124051;23;20010;-81
2022/01/19 05:43:07;;;;;;;9.27;1.05;;;5.10;99.90;;;;;;6148543;23;20420;-81
2022/01/19 05:45:34;;;;;;;3.30;1.00;;;5.00;99.90;;;;;;6124041;23;20006;-81
2022/01/19 05:48:16;;;;;;;3.15;1.02;;;5.00;99.90;;;;;;6078214;23;20346;-80
2022/01/19 05:50:48;;;;;;;3.88;0.75;;;5.00;99.90;;;;;;6101483;23;20010;-81
2022/01/19 05:53:19;;;;;;;3.33;0.90;;;5.00;99.90;;;;;;6099704;23;20034;-82
2022/01/19 05:55:46;;;;;;;4.63;0.80;;;5.10;99.90;;;;;;6099738;23;20062;-84
2022/01/19 05:58:14;;;;;;;2.03;0.77;;;5.10;99.90;;;;;;6124260;23;20053;-81
2022/01/19 06:00:42;;;;;;;2.10;0.85;;;5.10;99.90;;;;;;6099868;23;20106;-81
2022/01/19 06:03:11;;;;;;;1.48;0.75;;;5.10;99.90;;;;;;6101083;23;20025;-81
2022/01/19 06:05:59;;;;;;;1.75;1.00;;;5.10;99.90;;;;;;6105584;23;20078;-82
2022/01/19 06:08:58;;;;;;;3.90;0.90;;;5.10;99.90;;;;;;6155933;23;20016;-81
2022/01/19 06:11:26;;;;;;;2.78;0.90;;;5.10;99.90;;;;;;6190852;23;20004;-80
2022/01/19 06:13:52;;;;;;;5.45;1.52;;;5.20;99.90;;;;;;6166072;23;20008;-81
2022/01/19 06:16:19;;;;;;;2.15;1.10;;;5.10;99.90;;;;;;6190856;23;20063;-80
2022/01/19 06:18:45;;;;;;;2.33;1.17;;;5.10;99.90;;;;;;6165981;23;20389;-80
2022/01/19 06:21:14;;;;;;;3.05;0.82;;;5.20;99.90;;;;;;6190633;23;20062;-80
2022/01/19 06:23:51;;;;;;;4.30;1.20;;;5.20;99.90;;;;;;6166853;23;20013;-81
2022/01/19 06:26:29;;;;;;;3.20;1.20;;;5.20;99.90;;;;;;6191589;23;20009;-93
2022/01/19 06:28:56;;;;;;;5.57;1.65;;;5.20;99.90;;;;;;6168665;23;20113;-93
2022/01/19 06:31:23;;;;;;;4.22;1.08;;;5.10;99.90;;;;;;6167659;23;20020;-94
2022/01/19 06:33:54;;;;;;;7.80;1.58;;;5.10;99.90;;;;;;6167872;23;20004;-91
2022/01/19 06:36:31;;;;;;;1.35;1.23;;;5.10;99.90;;;;;;6168494;23;20005;-88
2022/01/19 06:39:30;;;;;;;1.50;0.95;;;5.20;99.90;;;;;;6173466;23;20004;-89
2022/01/19 06:42:06;;;;;;;2.67;1.23;;;5.20;99.90;;;;;;6168345;23;20013;-88
2022/01/19 06:44:33;;;;;;;4.25;1.30;;;5.20;99.90;;;;;;6167076;23;20009;-91
2022/01/19 06:47:00;;;;;;;11.48;1.48;;;5.20;99.90;;;;;;6166831;23;20001;-88
2022/01/19 06:49:27;;;;;;;2.67;1.00;;;5.30;99.90;;;;;;6166724;23;20087;-90
2022/01/19 06:51:56;;;;;;;3.42;1.20;;;5.30;99.90;;;;;;6167203;23;20011;-85
2022/01/19 06:54:23;;;;;;;3.55;0.98;;;5.40;99.90;;;;;;6166297;23;20004;-89
2022/01/19 06:56:49;;;;;;;7.10;1.52;;;5.50;99.90;;;;;;6166653;23;20386;-87
2022/01/19 06:59:31;;;;;;;3.78;1.52;;;5.60;99.90;;;;;;6169082;23;20319;-91
2022/01/19 07:02:04;;;;;;;5.38;1.20;;;5.70;99.90;;;;;;6169283;23;20450;-90
2022/01/19 07:05:00;;;;;;;13.18;2.08;;;5.70;99.90;;;;;;6108055;23;20018;-84
2022/01/19 07:07:39;;;;;;;9.05;2.10;;;5.80;99.90;;;;;;6103686;23;20009;-81
2022/01/19 07:10:07;;;;;;;6.05;1.63;;;5.90;99.90;;;;;;6125666;23;20089;-85
2022/01/19 07:12:38;;;;;;;10.48;1.55;;;5.90;99.90;;;;;;6101902;23;20072;-87
2022/01/19 07:15:06;;;;;;;3.13;1.13;;;6.00;99.90;;;;;;6101520;23;20466;-87
2022/01/19 07:17:33;;;;;;;7.10;1.75;;;6.00;99.90;;;;;;6101325;23;20084;-87
2022/01/19 07:20:00;;;;;;;5.93;1.63;;;6.10;99.90;;;;;;6101789;23;20452;-87
2022/01/19 07:22:26;;;;;;;6.25;1.42;;;6.10;99.90;;;;;;6101755;23;20021;-85
2022/01/19 07:24:59;;;;;;;3.20;0.90;;;6.20;99.90;;;;;;6102075;23;20017;-86
2022/01/19 07:27:26;;;;;;;6.35;1.20;;;6.30;99.90;;;;;;6106470;23;20069;-83
2022/01/19 07:29:52;;;;;;;10.85;1.40;;;6.30;99.90;;;;;;6101207;23;20010;-90
2022/01/19 07:32:20;;;;;;;1.52;0.90;;;6.30;99.90;;;;;;6101301;23;20503;-85
2022/01/19 07:34:47;;;;;;;3.38;1.27;;;6.40;99.90;;;;;;6100553;23;20006;-81
2022/01/19 07:37:15;;;;;;;7.30;1.58;;;6.50;99.90;;;;;;6125143;23;20506;-83
2022/01/19 07:39:42;;;;;;;3.83;1.02;;;6.60;99.90;;;;;;6100349;23;20014;-81
2022/01/19 07:42:08;;;;;;;2.08;1.13;;;6.60;99.90;;;;;;6149584;23;20064;-82
2022/01/19 07:44:43;;;;;;;6.63;1.65;;;6.60;99.90;;;;;;6185118;23;20009;-82
2022/01/19 07:47:27;;;;;;;3.45;1.25;;;6.70;99.90;;;;;;6163556;23;20009;-81
2022/01/19 07:50:26;;;;;;;4.57;1.77;;;6.80;99.90;;;;;;6124915;23;20041;-81
2022/01/19 07:53:01;;;;;;;2.35;1.00;;;6.90;99.90;;;;;;6078159;23;20021;-82
2022/01/19 07:55:39;;;;;;;2.45;1.50;;;7.00;99.90;;;;;;6124827;23;20006;-82
2022/01/19 07:58:21;;;;;;;5.13;1.30;;;7.10;99.90;;;;;;6124559;23;20025;-79
2022/01/19 08:01:08;;;;;;;1.92;1.50;;;7.10;99.90;;;;;;6124027;23;20010;-79
2022/01/19 08:03:52;;;;;;;;;;;7.20;99.90;;;;;;6125428;23;20032;-78
2022/01/19 08:06:25;;;;;;;3.13;1.67;;;7.20;99.90;;;;;;6100205;23;19912;-81
2022/01/19 08:08:54;;;;;;;10.23;2.47;;;7.30;99.90;;;;;;6097061;23;20455;-78
2022/01/19 08:11:20;;;;;;;7.88;1.08;;;7.40;99.90;;;;;;6100150;23;20014;-81
2022/01/19 08:13:51;;;;;;;4.65;1.13;;;7.50;99.90;;;;;;6077334;23;20036;-79
2022/01/19 08:16:18;;;;;;;12.13;2.42;;;7.70;99.90;;;;;;6100193;23;20439;-80
2022/01/19 08:18:45;;;;;;;3.88;1.95;;;7.70;99.90;;;;;;6075989;23;20045;-81
2022/01/19 08:21:12;;;;;;;4.15;1.60;;;7.80;99.90;;;;;;6100117;23;20018;-81
2022/01/19 08:23:47;;;;;;;8.85;1.80;;;7.80;99.90;;;;;;6077919;23;20021;-80
2022/01/19 08:26:15;;;;;;;4.03;2.25;;;7.90;99.90;;;;;;6160287;23;20055;-82
2022/01/19 08:28:42;;;;;;;7.43;1.20;;;8.00;99.90;;;;;;6159848;23;20379;-81
2022/01/19 08:31:08;;;;;;;5.97;1.45;;;8.10;99.90;;;;;;6177889;23;20043;-82
2022/01/19 08:33:55;;;;;;;3.58;1.20;;;8.10;99.90;;;;;;6149255;23;20331;-84
2022/01/19 08:36:32;;;;;;;4.78;1.25;;;8.20;99.90;;;;;;6167536;23;20018;-82
2022/01/19 08:39:08;;;;;;;4.72;1.40;;;8.20;99.90;;;;;;6166940;23;20012;-82
2022/01/19 08:41:36;;;;;;;9.80;1.73;;;8.30;99.90;;;;;;6216578;23;20015;-84
2022/01/19 08:44:03;;;;;;;5.10;1.35;;;8.30;99.90;;;;;;6164981;23;20004;-82
2022/01/19 08:46:29;;;;;;;5.70;1.60;;;8.30;99.90;;;;;;6164550;23;20023;-83
2022/01/19 08:49:15;;;;;;;3.13;1.40;;;8.40;99.90;;;;;;6216547;23;20329;-82
2022/01/19 08:51:47;;;;;;;3.05;1.70;;;8.50;99.90;;;;;;6191031;23;20342;-81
2022/01/19 08:54:21;;;;;;;5.57;1.17;;;8.50;99.90;;;;;;6166185;23;20060;-80
2022/01/19 08:57:01;;;;;;;2.97;1.67;;;8.50;99.90;;;;;;6167239;23;20061;-80
2022/01/19 08:59:32;;;;;;;5.65;1.88;;;8.60;99.90;;;;;;6189290;23;20008;-80
2022/01/19 09:01:58;;;;;;;4.60;1.75;;;8.70;99.90;;;;;;6164260;23;20346;-79
2022/01/19 09:04:25;;;;;;;4.53;1.30;;;8.70;99.90;;;;;;6164450;23;20043;-79
2022/01/19 09:06:53;;;;;;;2.78;1.10;;;8.80;99.90;;;;;;6155357;23;20011;-78
2022/01/19 09:09:20;;;;;;;4.90;1.48;;;8.80;99.90;;;;;;6164564;23;20055;-78
2022/01/19 09:11:46;;;;;;;6.38;1.35;;;8.90;99.90;;;;;;6190115;23;20092;-79
2022/01/19 09:14:12;;;;;;;5.95;1.17;;;8.90;99.90;;;;;;6164614;23;20008;-81
2022/01/19 09:16:44;;;;;;;5.32;1.67;;;8.90;99.90;;;;;;6164963;23;20008;-85
2022/01/19 09:19:12;;;;;;;6.80;1.67;;;9.00;99.90;;;;;;6165338;23;20434;-86
2022/01/19 09:21:38;;;;;;;3.88;1.17;;;9.00;99.90;;;;;;6165456;23;20100;-87
2022/01/19 09:24:05;;;;;;;5.43;1.92;;;9.00;99.90;;;;;;6165430;23;20016;-84
2022/01/19 09:26:31;;;;;;;5.00;1.45;;;9.10;99.90;;;;;;6164891;23;20043;-82
2022/01/19 09:28:57;;;;;;;4.30;1.08;;;9.10;99.90;;;;;;6164772;23;20008;-83
2022/01/19 09:31:24;;;;;;;6.75;2.00;;;9.20;99.90;;;;;;6164133;23;20039;-80
2022/01/19 09:34:08;;;;;;;8.05;1.58;;;9.20;99.90;;;;;;6164769;23;20008;-81
2022/01/19 09:36:43;;;;;;;2.80;1.20;;;9.20;99.90;;;;;;6164799;23;20015;-85
2022/01/19 09:39:11;;;;;;;3.00;1.13;;;9.30;99.90;;;;;;6166593;23;20012;-85
2022/01/19 09:41:37;;;;;;;3.38;1.65;;;9.30;99.90;;;;;;6166470;23;20461;-83
2022/01/19 09:44:03;;;;;;;5.53;1.60;;;9.40;99.90;;;;;;6166823;23;20426;-84
2022/01/19 09:46:30;;;;;;;7.13;2.70;;;9.40;99.90;;;;;;6166484;23;19997;-83
2022/01/19 09:48:58;;;;;;;4.00;1.35;;;9.40;99.90;;;;;;6166527;23;20012;-82
2022/01/19 09:51:25;;;;;;;3.35;1.33;;;9.50;99.90;;;;;;6191704;23;20003;-89
2022/01/19 09:53:51;;;;;;;6.30;1.50;;;9.50;99.90;;;;;;6167192;23;20004;-87
2022/01/19 09:56:20;;;;;;;3.05;1.20;;;9.50;99.90;;;;;;6166792;23;20000;-81
2022/01/19 09:58:47;;;;;;;3.78;1.20;;;9.50;99.90;;;;;;6166251;23;20009;-80
2022/01/19 10:01:18;;;;;;;4.13;1.33;;;9.60;99.90;;;;;;6166405;23;20083;-83
2022/01/19 10:03:45;;;;;;;4.95;1.05;;;9.60;99.90;;;;;;6191029;23;20098;-82
2022/01/19 10:06:17;;;;;;;1.05;0.98;;;9.60;99.90;;;;;;6166381;23;20013;-84
2022/01/19 10:08:50;;;;;;;2.05;1.30;;;9.60;99.90;;;;;;6166474;23;20040;-84
2022/01/19 10:11:25;;;;;;;2.90;1.52;;;9.70;99.90;;;;;;6166788;23;20438;-85
2022/01/19 10:19:50;;;;;;;2.67;0.95;;;9.80;99.90;;;;;;6191483;23;20012;-84
2022/01/19 10:22:26;;;;;;;5.78;1.63;;;9.80;99.90;;;;;;6210907;23;20020;-77
2022/01/19 10:24:54;;;;;;;4.35;1.88;;;9.90;99.90;;;;;;6190579;23;20100;-78
2022/01/19 10:27:28;;;;;;;5.00;1.58;;;10.00;99.90;;;;;;6190510;23;20426;-79
2022/01/19 10:30:03;;;;;;;1.92;0.63;;;10.00;99.90;;;;;;6190516;23;20500;-78
2022/01/19 10:32:41;;;;;;;3.33;1.10;;;10.00;99.90;;;;;;6165786;23;20099;-77
2022/01/19 10:35:22;;;;;;;2.53;0.82;;;10.00;99.90;;;;;;6165608;23;20040;-80
2022/01/19 10:38:05;;;;;;;0.63;0.43;;;10.10;99.90;;;;;;6215542;23;20013;-78
2022/01/19 10:40:32;;;;;;;2.50;0.50;;;10.10;99.90;;;;;;6165836;23;20087;-78
2022/01/19 10:42:59;;;;;;;2.70;0.60;;;10.10;99.90;;;;;;6165563;23;20099;-77
2022/01/19 10:45:30;;;;;;;4.68;0.60;;;10.20;99.90;;;;;;6190409;23;20005;-77
2022/01/19 10:47:56;;;;;;;0.90;0.40;;;10.20;99.90;;;;;;6215356;23;20320;-77
2022/01/19 10:50:29;;;;;;;2.05;0.50;;;10.20;99.90;;;;;;6216511;23;19996;-77
2022/01/19 10:52:58;;;;;;;1.35;0.57;;;10.10;99.90;;;;;;6190334;23;20466;-79
2022/01/19 10:55:42;;;;;;;5.47;0.88;;;10.20;99.90;;;;;;6190258;23;20005;-77
2022/01/19 10:58:16;;;;;;;5.88;0.93;;;10.20;99.90;;;;;;6217319;23;20005;-77
2022/01/19 11:00:54;;;;;;;3.60;0.57;;;10.20;99.90;;;;;;6217034;23;20009;-78
2022/01/19 11:03:28;;;;;;;2.67;0.73;;;10.20;99.90;;;;;;6190161;23;20021;-78
2022/01/19 11:06:01;;;;;;;3.17;1.48;;;10.30;99.90;;;;;;6190508;23;20016;-79
2022/01/19 11:08:29;;;;;;;8.27;1.20;;;10.30;99.90;;;;;;6190161;23;20008;-78
2022/01/19 11:10:58;;;;;;;3.65;1.08;;;10.30;99.90;;;;;;6165722;23;20430;-78
2022/01/19 11:13:30;;;;;;;4.00;0.75;;;10.30;99.90;;;;;;6189924;23;20009;-78
2022/01/19 11:16:03;;;;;;;2.05;0.55;;;10.30;99.90;;;;;;6216765;23;20431;-79
2022/01/19 11:18:32;;;;;;;1.85;1.02;;;10.30;99.90;;;;;;6216786;23;20005;-77
2022/01/19 11:21:04;;;;;;;1.83;0.90;;;10.30;99.90;;;;;;6165287;23;20011;-77
2022/01/19 11:24:05;;;;;;;2.20;0.55;;;10.30;99.90;;;;;;6216589;23;20017;-77
2022/01/19 11:26:32;;;;;;;2.88;0.40;;;10.30;99.90;;;;;;6190677;23;20446;-79
2022/01/19 11:29:21;;;;;;;2.47;0.32;;;10.40;99.90;;;;;;6190193;23;20080;-80
2022/01/19 11:31:50;;;;;;;1.27;0.60;;;10.30;99.90;;;;;;6189718;23;20324;-77
2022/01/19 11:34:51;;;;;;;1.58;1.02;;;10.30;99.90;;;;;;6214972;23;20059;-77
2022/01/19 11:37:40;;;;;;;8.93;3.00;;;10.30;99.90;;;;;;6189978;23;20012;-77
2022/01/19 11:40:18;;;;;;;13.70;7.35;;;10.40;99.90;;;;;;6190013;23;20051;-77
2022/01/19 11:42:45;;;;;;;5.57;1.70;;;10.40;99.90;;;;;;6165090;23;20023;-77
2022/01/19 11:45:40;;;;;;;1.27;0.75;;;10.40;99.90;;;;;;6216416;23;20035;-76
2022/01/19 11:48:18;;;;;;;7.93;0.70;;;10.50;99.90;;;;;;6190380;23;20330;-78
2022/01/19 11:50:46;;;;;;;1.58;1.10;;;10.50;99.90;;;;;;6216705;23;20005;-77
2022/01/19 11:53:13;;;;;;;5.43;0.77;;;10.50;99.90;;;;;;6216326;23;20055;-77
2022/01/19 11:56:08;;;;;;;3.00;1.15;;;10.50;99.90;;;;;;6164911;23;20088;-76
2022/01/19 11:58:35;;;;;;;1.10;0.77;;;10.40;99.90;;;;;;6216141;23;20005;-77
2022/01/19 12:01:03;;;;;;;9.35;1.08;;;10.40;99.90;;;;;;6216177;23;20005;-77
2022/01/19 12:03:33;;;;;;;3.42;0.98;;;10.40;99.90;;;;;;6189595;23;20020;-77
2022/01/19 12:05:59;;;;;;;1.77;0.63;;;10.50;99.90;;;;;;6216276;23;20080;-76
2022/01/19 12:08:38;;;;;;;6.38;2.42;;;10.50;99.90;;;;;;6216353;23;20004;-76
2022/01/19 12:11:16;;;;;;;2.13;1.05;;;10.50;99.90;;;;;;6165020;23;20012;-76
2022/01/19 12:13:57;;;;;;;5.00;0.93;;;10.50;99.90;;;;;;6189673;23;20012;-77
2022/01/19 12:19:10;;;;;;;9.57;2.55;;;10.50;99.90;;;;;;6216202;23;20004;-78
2022/01/19 12:22:12;;;;;;;4.55;1.65;;;10.50;99.90;;;;;;6164769;23;20449;-77
2022/01/19 12:24:53;;;;;;;2.67;1.05;;;10.50;99.90;;;;;;6189534;23;20013;-74
2022/01/19 12:27:20;;;;;;;5.70;2.28;;;10.50;99.90;;;;;;6216761;23;20375;-76
2022/01/19 12:30:11;;;;;;;1.95;1.05;;;10.50;99.90;;;;;;6189981;23;20027;-76
2022/01/19 12:32:50;;;;;;;7.80;2.40;;;10.50;99.90;;;;;;6216216;23;20062;-78
2022/01/19 12:35:33;;;;;;;6.15;2.72;;;10.60;99.90;;;;;;6189375;23;20078;-75
2022/01/19 12:38:01;;;;;;;1.58;1.10;;;10.50;99.90;;;;;;6189479;23;20004;-74
2022/01/19 12:40:33;;;;;;;5.50;1.40;;;10.50;99.90;;;;;;6188221;23;20444;-75
2022/01/19 12:43:03;;;;;;;3.65;1.23;;;10.50;99.90;;;;;;6216024;23;20091;-74
2022/01/19 12:45:35;;;;;;;3.17;1.38;;;10.50;99.90;;;;;;6216544;23;20004;-77
2022/01/19 12:48:07;;;;;;;3.97;1.30;;;10.50;99.90;;;;;;6189779;23;20040;-77
2022/01/19 12:50:38;;;;;;;2.35;1.20;;;10.50;99.90;;;;;;6189356;23;20009;-77
2022/01/19 12:53:16;;;;;;;1.63;0.88;;;10.40;99.90;;;;;;6189500;23;20009;-76
2022/01/19 12:55:48;;;;;;;1.75;0.82;;;10.50;99.90;;;;;;6164571;23;20027;-80
2022/01/19 12:58:35;;;;;;;1.20;1.02;;;10.50;99.90;;;;;;6189240;23;20100;-76
2022/01/19 13:01:06;;;;;;;1.88;1.00;;;10.50;99.90;;;;;;6215884;23;20008;-76
2022/01/19 13:03:40;;;;;;;7.57;1.58;;;10.50;99.90;;;;;;6189161;23;20446;-76
2022/01/19 13:06:13;;;;;;;7.90;1.27;;;10.60;99.90;;;;;;6216282;23;20030;-77
2022/01/19 13:08:59;;;;;;;2.63;1.08;;;10.60;99.90;;;;;;6189308;23;20032;-77
2022/01/19 13:11:36;;;;;;;6.80;1.92;;;10.50;99.90;;;;;;6215908;23;20008;-77
2022/01/19 13:14:07;;;;;;;3.03;1.02;;;10.50;99.90;;;;;;6217856;23;20004;-77
2022/01/19 13:16:38;;;;;;;1.80;1.10;;;10.50;99.90;;;;;;6191294;23;20004;-76
2022/01/19 13:19:09;;;;;;;3.25;0.80;;;10.50;99.90;;;;;;6166462;23;20014;-76
2022/01/19 13:21:37;;;;;;;6.80;2.08;;;10.50;99.90;;;;;;6166124;23;20013;-76
2022/01/19 13:24:12;;;;;;;7.43;2.17;;;10.50;99.90;;;;;;6191233;23;20039;-77
2022/01/19 13:26:41;;;;;;;3.53;1.48;;;10.50;99.90;;;;;;6217915;23;20007;-78
2022/01/19 13:29:20;;;;;;;4.53;1.30;;;10.50;99.90;;;;;;6217768;23;20008;-78
2022/01/19 13:32:19;;;;;;;2.13;1.45;;;10.50;99.90;;;;;;6166038;23;20090;-76
2022/01/19 13:35:03;;;;;;;5.70;1.40;;;10.40;99.90;;;;;;6217731;23;20012;-77
2022/01/19 13:37:51;;;;;;;2.25;1.23;;;10.40;99.90;;;;;;6191141;23;20056;-79
2022/01/19 13:40:33;;;;;;;2.83;1.00;;;10.40;99.90;;;;;;6191164;23;20487;-78
2022/01/19 13:43:08;;;;;;;5.60;1.95;;;10.40;99.90;;;;;;6191164;23;20013;-79
2022/01/19 13:50:42;;;;;;;3.42;1.60;;;10.40;99.90;;;;;;6190965;23;20082;-76
2022/01/19 13:53:10;;;;;;;4.32;1.40;;;10.40;99.90;;;;;;6217598;23;20051;-76
2022/01/19 13:55:38;;;;;;;5.95;1.92;;;10.40;99.90;;;;;;6217576;23;20445;-76
2022/01/19 13:58:12;;;;;;;2.50;1.20;;;10.40;99.90;;;;;;6217410;23;20028;-76
2022/01/19 14:01:00;;;;;;;1.08;0.98;;;10.30;99.90;;;;;;6216140;23;20011;-76
2022/01/19 14:03:49;;;;;;;1.00;0.80;;;10.30;99.90;;;;;;6217267;23;20048;-76
2022/01/19 14:06:26;;;;;;;4.78;0.95;;;10.30;99.90;;;;;;6190233;23;20001;-77
2022/01/19 14:09:16;;;;;;;2.30;0.95;;;10.20;99.90;;;;;;6217575;23;20000;-78
2022/01/19 14:11:49;;;;;;;1.90;0.88;;;10.20;99.90;;;;;;6217485;23;20079;-76
2022/01/19 14:14:32;;;;;;;0.80;0.35;;;10.20;99.90;;;;;;6217343;23;20024;-76
2022/01/19 14:16:59;;;;;;;1.50;1.02;;;10.10;99.90;;;;;;6217378;23;20008;-78
2022/01/19 14:19:41;;;;;;;3.35;0.90;;;10.10;99.90;;;;;;6190534;23;20004;-78
2022/01/19 14:22:29;;;;;;;3.17;0.90;;;10.10;99.90;;;;;;6190895;23;20450;-78
2022/01/19 14:25:10;;;;;;;5.30;1.77;;;10.10;99.90;;;;;;6216916;23;20423;-77
2022/01/19 14:27:53;;;;;;;1.85;1.17;;;10.10;99.90;;;;;;6165897;23;20032;-77
2022/01/19 14:30:30;;;;;;;1.98;0.82;;;10.10;99.90;;;;;;6190980;23;20389;-77
2022/01/19 14:33:17;;;;;;;2.83;0.70;;;10.10;99.90;;;;;;6217222;23;20017;-77
2022/01/19 14:35:56;;;;;;;3.50;0.77;;;10.00;99.90;;;;;;6217160;23;20005;-76
2022/01/19 14:38:41;;;;;;;1.95;0.93;;;10.10;99.90;;;;;;6129878;23;20009;-81
2022/01/19 14:41:18;;;;;;;2.00;0.73;;;10.00;99.90;;;;;;6130008;23;20451;-78
2022/01/19 14:44:07;;;;;;;2.97;0.95;;;10.00;99.90;;;;;;6130180;23;20026;-76
2022/01/19 14:47:04;;;;;;;4.40;0.80;;;10.00;99.90;;;;;;6130097;23;20009;-78
2022/01/19 14:49:40;;;;;;;7.78;1.17;;;10.00;99.90;;;;;;6105954;23;20009;-79
2022/01/19 14:52:14;;;;;;;4.97;2.17;;;9.90;99.90;;;;;;6130714;23;20017;-78
2022/01/19 14:54:48;;;;;;;1.17;0.70;;;9.80;99.90;;;;;;6130521;23;20467;-77
2022/01/19 14:57:20;;;;;;;2.10;1.58;;;9.80;99.90;;;;;;6154570;23;20276;-77
2022/01/19 14:59:50;;;;;;;4.28;1.23;;;9.80;99.90;;;;;;6154675;23;20095;-76
2022/01/19 15:02:29;;;;;;;4.45;1.40;;;9.80;99.90;;;;;;6154515;23;20337;-77
2022/01/19 15:05:04;;;;;;;4.78;1.52;;;9.80;99.90;;;;;;6154659;23;20023;-77
2022/01/19 15:07:40;;;;;;;5.53;1.92;;;9.70;99.90;;;;;;6154599;23;20018;-77
2022/01/19 15:10:15;;;;;;;7.32;1.75;;;9.70;99.90;;;;;;6154594;23;20025;-77
2022/01/19 15:12:51;;;;;;;6.28;2.20;;;9.70;99.90;;;;;;6130487;23;20491;-76
2022/01/19 15:15:25;;;;;;;5.13;2.10;;;9.60;99.90;;;;;;6129625;23;20392;-77
2022/01/19 15:17:58;;;;;;;5.38;1.73;;;9.60;99.90;;;;;;6154504;23;20435;-77
2022/01/19 15:20:27;;;;;;;5.72;1.83;;;9.60;99.90;;;;;;6154765;23;20080;-83